3LF

Litchfield Municipal Airport

Litchfield, Illinois, USA
METAR K3LF 161755Z AUTO 34003KT 5SM BR OVC015 00/00 A3027 RMK AO2 T00031005 10003 20000
Observed Flight Rules
Jan-16 @ 17:55 UTC (30 minutes ago) Marginal Visual Flight Rules
Wind Visibility Clouds Conditions
340° at 3 knots 5 miles
  • Overcast at 1,500' AGL
  • Mist
Temperatures Readings
Current 0°C / 32°F
Dewpoint -1°C / 30°F
Humidity 93%
Altimeter 30.27" Hg
Pressure 1025.02 hPa
Elevation 210
METAR K3LF 161755Z AUTO 34003KT 5SM BR OVC015 00/00 A3027 RMK AO2 T00031005 10003 20000
Observed Flight Rules
Jan-16 @ 17:55 UTC
(30 minutes ago)
MVFR
Wind Visibility
340° at 3 knots 5 miles
Clouds
  • Overcast at 1,500' AGL
Conditions
  • Mist
Temperature Dewpoint
0°C / 32°F -1°C / 30°F
Humidity Altimeter Pressure
93% 30.27" Hg 1025.02 hPa